• Join FlightAware (Why Join?)
  • Login
  • US Flag 
10:59PM EDT


 

Airport Tracker/Info


-or-


 

Live Flight TrackerFlight Track Log ✈ RJC338 ✈ 19-May-2013 ✈ 1B1 - KHTO

Flight Track Log - Related Links

Times and Time Zones

All times are in EDT time to prevent confusion due to time zone crossing. See the RJC338 flight status page for this flight to view local times or setup timezone preferences in your user account.

Time Position Orientation Groundspeed Altitude Reporting Facility
EDT Latitude Longitude Course Direction KTS MPH feet Rate Location/Type
12:47PM 42.2681 -73.7222 249° West 164 189 1,100  Level Boston Center
12:48PM 42.2508 -73.7836 249° West 172 198 3,400 1,920 Climbing Boston Center
12:49PM 42.2111 -73.7939 191° South 133 153 5,300 1,260 Climbing Boston Center
12:50PM 42.1675 -73.7761 163° South 143 165 6,000 300 Climbing Boston Center
12:51PM 42.1053 -73.7497 163° South 196 226 6,000  Level Boston Center
12:52PM 42.0450 -73.7233 162° South 231 266 6,100  Climbing Boston Center
12:53PM 41.9869 -73.6969 161° South 231 266 6,100  Level Boston Center
12:54PM 41.9269 -73.6733 164° South 225 259 6,100  Level Boston Center
12:55PM 41.8667 -73.6444 160° South 225 259 6,100  Level Boston Center
12:56PM 41.8106 -73.6211 163° South 225 259 6,100  Level Boston Center
12:57PM 41.7506 -73.5947 162° South 225 259 6,100  Level Boston Center
12:58PM 41.6925 -73.5661 160° South 225 259 6,100 -60 Level Boston Center
01:00PM 41.6000 -73.5167 158° South 221 254 6,000 -60 Descending New York TRACON
01:01PM 41.5333 -73.4833 159° South 219 252 6,000 -360 Level New York TRACON
01:02PM 41.4833 -73.4500 153° Southeast 235 270 5,300 -900 Descending New York TRACON
01:03PM 41.4333 -73.3833 135° Southeast 245 282 4,300 -660 Descending New York TRACON
01:04PM 41.4000 -73.3167 124° Southeast 235 270 4,000 -180 Descending New York TRACON
01:05PM 41.3667 -73.2333 118° Southeast 223 257 4,000 -120 Level New York TRACON
01:06PM 41.3333 -73.1667 124° Southeast 225 259 3,800 -540 Descending New York TRACON
01:07PM 41.3000 -73.1167 132° Southeast 232 267 3,000 -480 Descending New York TRACON
01:08PM 41.2667 -73.0333 118° Southeast 225 259 3,000  Level New York TRACON
01:09PM 41.2333 -72.9667 124° Southeast 215 247 3,000  Level New York TRACON
01:10PM 41.2000 -72.9000 124° Southeast 221 254 3,000  Level New York TRACON
01:11PM 41.1667 -72.8500 132° Southeast 222 255 3,000  Level New York TRACON
01:12PM 41.1333 -72.7833 124° Southeast 222 255 3,000  Level New York TRACON
01:13PM 41.1000 -72.7167 124° Southeast 213 245 3,000 -480 Level New York TRACON
01:14PM 41.0667 -72.6667 131° Southeast 193 222 2,100 -600 Descending New York TRACON
01:15PM 41.0333 -72.6167 131° Southeast 165 190 1,900 -120 Descending New York TRACON
01:16PM 41.0000 -72.5833 143° Southeast 150 173 1,900  Level New York TRACON
01:17PM 40.9833 -72.5333 114° Southeast 152 175 1,900  Level New York TRACON
01:18PM 40.9667 -72.4833 114° Southeast 160 184 1,900 -60 Level New York TRACON
01:19PM 40.9500 -72.4333 114° Southeast 164 189 1,800 -240 Descending New York TRACON
01:20PM 40.9500 -72.3667 90° East 141 162 1,500 -420 Descending New York TRACON
01:21PM 40.9500 -72.3167 90° East 141 162 1,000 -540 Descending New York TRACON